Time;durP1;ratioP1;P1;durP2;ratioP2;P2;SDS_P1;SDS_P2;PMS_P1;PMS_P2;Temp;Humidity;BMP_temperature;BMP_pressure;BME280_temperature;BME280_humidity;BME280_pressure;Samples;Min_cycle;Max_cycle;Signal;HPM_P1;HPM_P2
2021/05/04 00:02:24;;;;;;;5.93;3.38;;;13.20;64.30;;;;;;5072030;28;20027;-59
2021/05/04 00:04:50;;;;;;;7.43;4.55;;;13.20;64.30;;;;;;5072853;28;20476;-59
2021/05/04 00:07:16;;;;;;;5.20;2.25;;;13.20;64.60;;;;;;5072960;28;20036;-59
2021/05/04 00:09:42;;;;;;;5.47;2.92;;;13.20;64.80;;;;;;5071898;28;20492;-59
2021/05/04 00:12:08;;;;;;;7.78;4.22;;;13.20;64.70;;;;;;5072776;28;20028;-59
2021/05/04 00:14:35;;;;;;;3.78;2.53;;;13.10;64.60;;;;;;5072670;28;20058;-60
2021/05/04 00:17:03;;;;;;;1.85;1.52;;;13.10;64.60;;;;;;5071685;28;20039;-59
2021/05/04 00:19:28;;;;;;;1.75;1.23;;;13.00;64.60;;;;;;5072861;28;20032;-59
2021/05/04 00:21:54;;;;;;;3.85;1.73;;;13.10;64.80;;;;;;5072453;28;20487;-59
2021/05/04 00:24:20;;;;;;;7.30;3.22;;;13.00;65.10;;;;;;5072026;28;20048;-59
2021/05/04 00:26:45;;;;;;;4.38;2.78;;;13.00;65.00;;;;;;5072431;28;20032;-59
2021/05/04 00:29:11;;;;;;;5.18;3.10;;;13.00;65.10;;;;;;5072521;28;20054;-59
2021/05/04 00:31:37;;;;;;;6.55;3.35;;;13.00;65.30;;;;;;5071705;28;20499;-59
2021/05/04 00:34:03;;;;;;;6.70;3.33;;;13.00;65.20;;;;;;5072590;28;20064;-59
2021/05/04 00:36:29;;;;;;;4.03;2.58;;;12.90;65.30;;;;;;5072625;28;20114;-60
2021/05/04 00:38:56;;;;;;;6.32;3.53;;;12.90;65.40;;;;;;5071635;28;20028;-60
2021/05/04 00:41:22;;;;;;;6.32;2.83;;;12.90;65.20;;;;;;5072464;28;20170;-60
2021/05/04 00:43:48;;;;;;;7.47;3.63;;;12.80;65.40;;;;;;5072342;28;20052;-60
2021/05/04 00:46:13;;;;;;;6.22;3.30;;;12.70;65.80;;;;;;5071781;28;20052;-60
2021/05/04 00:48:39;;;;;;;7.10;3.95;;;12.60;66.10;;;;;;5071620;28;20545;-60
2021/05/04 00:51:05;;;;;;;2.88;1.88;;;12.60;66.30;;;;;;5072493;28;20064;-60
2021/05/04 00:53:31;;;;;;;8.57;2.80;;;12.60;66.60;;;;;;5071708;28;20032;-60
2021/05/04 00:56:01;;;;;;;7.75;2.97;;;12.50;66.90;;;;;;5072270;28;20100;-60
2021/05/04 00:58:27;;;;;;;5.38;3.40;;;12.50;67.10;;;;;;5072228;28;20082;-60
2021/05/04 01:00:54;;;;;;;3.72;2.38;;;12.50;67.50;;;;;;5071163;28;20040;-60
2021/05/04 01:03:20;;;;;;;6.50;3.28;;;12.40;67.70;;;;;;5072187;28;20025;-60
2021/05/04 01:05:46;;;;;;;6.30;3.75;;;12.40;68.00;;;;;;5071678;28;20025;-61
2021/05/04 01:08:15;;;;;;;4.40;2.85;;;12.40;68.10;;;;;;5072005;28;20492;-61
2021/05/04 01:10:41;;;;;;;11.10;3.58;;;12.30;68.30;;;;;;5073723;28;20480;-61
2021/05/04 01:13:07;;;;;;;9.40;3.42;;;12.40;68.50;;;;;;5075094;28;20028;-61
2021/05/04 01:15:33;;;;;;;5.68;2.85;;;12.40;68.70;;;;;;5075935;28;20051;-61
2021/05/04 01:17:58;;;;;;;4.22;2.40;;;12.30;68.80;;;;;;5075794;28;20037;-60
2021/05/04 01:20:24;;;;;;;3.13;2.30;;;12.30;68.90;;;;;;5075047;28;20104;-60
2021/05/04 01:22:51;;;;;;;3.85;2.47;;;12.30;69.10;;;;;;5075836;28;20050;-60
2021/05/04 01:25:18;;;;;;;5.95;2.88;;;12.30;69.30;;;;;;5075559;28;20479;-61
2021/05/04 01:27:43;;;;;;;4.18;2.60;;;12.30;69.50;;;;;;5073711;28;20032;-61
2021/05/04 01:30:10;;;;;;;5.90;2.33;;;12.30;69.30;;;;;;5075660;28;20062;-61
2021/05/04 01:32:36;;;;;;;3.28;2.28;;;12.30;69.40;;;;;;5075551;28;20111;-61
2021/05/04 01:35:05;;;;;;;4.95;2.08;;;12.30;69.40;;;;;;5074997;28;20407;-60
2021/05/04 01:37:37;;;;;;;4.85;2.03;;;12.30;69.60;;;;;;5075720;28;20062;-60
2021/05/04 01:40:04;;;;;;;6.22;3.33;;;12.30;69.80;;;;;;5075461;28;20444;-60
2021/05/04 01:42:29;;;;;;;3.50;2.60;;;12.30;69.80;;;;;;5074493;28;20024;-60
2021/05/04 01:44:55;;;;;;;5.95;3.92;;;12.30;70.00;;;;;;5075652;28;20058;-60
2021/05/04 01:47:21;;;;;;;4.20;2.38;;;12.30;70.00;;;;;;5075085;28;20094;-59
2021/05/04 01:49:46;;;;;;;5.18;2.95;;;12.30;70.10;;;;;;5074524;28;20052;-60
2021/05/04 01:52:12;;;;;;;4.03;2.35;;;12.30;70.20;;;;;;5075084;28;20021;-60
2021/05/04 01:54:38;;;;;;;3.88;2.50;;;12.20;70.30;;;;;;5075171;28;20089;-60
2021/05/04 01:57:05;;;;;;;2.72;1.95;;;12.20;70.30;;;;;;5074567;28;20472;-60
2021/05/04 01:59:30;;;;;;;3.72;2.47;;;12.20;70.50;;;;;;5074701;28;20052;-60
2021/05/04 02:01:58;;;;;;;2.75;1.85;;;12.20;70.70;;;;;;5074584;28;20059;-60
2021/05/04 02:04:24;;;;;;;5.05;3.13;;;12.20;70.70;;;;;;5075149;28;20040;-61
2021/05/04 02:06:52;;;;;;;3.00;1.85;;;12.20;70.90;;;;;;5074981;28;20054;-60
2021/05/04 02:09:18;;;;;;;4.15;2.55;;;12.20;70.70;;;;;;5074142;28;20036;-60
2021/05/04 02:11:43;;;;;;;6.80;2.55;;;12.20;70.70;;;;;;5074837;28;20039;-61
2021/05/04 02:14:09;;;;;;;6.38;3.47;;;12.20;70.70;;;;;;5075107;28;20480;-61
2021/05/04 02:16:35;;;;;;;4.78;3.13;;;12.20;70.70;;;;;;5074005;28;20028;-61
2021/05/04 02:19:02;;;;;;;6.13;3.10;;;12.20;70.90;;;;;;5074913;28;20040;-61
2021/05/04 02:21:31;;;;;;;2.95;2.03;;;12.10;71.10;;;;;;5073496;28;20593;-58
2021/05/04 02:23:57;;;;;;;5.28;1.75;;;12.10;71.30;;;;;;5073840;28;20032;-58
2021/05/04 02:26:23;;;;;;;3.63;2.10;;;12.00;71.50;;;;;;5074620;28;20033;-58
2021/05/04 02:28:49;;;;;;;5.05;2.30;;;12.00;71.60;;;;;;5074575;28;20033;-58
2021/05/04 02:31:15;;;;;;;3.25;2.28;;;12.00;71.60;;;;;;5073936;28;20032;-58
2021/05/04 02:33:42;;;;;;;5.70;3.15;;;12.00;71.70;;;;;;5074286;28;20488;-58
2021/05/04 02:36:09;;;;;;;7.65;3.42;;;12.00;71.80;;;;;;5074535;28;20049;-58
2021/05/04 02:38:35;;;;;;;2.85;1.92;;;12.00;72.00;;;;;;5073391;28;20033;-58
2021/05/04 02:41:02;;;;;;;5.78;3.55;;;11.90;72.80;;;;;;5074657;28;20032;-58
2021/05/04 02:43:29;;;;;;;3.25;2.15;;;11.90;72.20;;;;;;5068312;28;20489;-58
2021/05/04 02:45:55;;;;;;;3.33;2.10;;;11.90;72.30;;;;;;5070883;28;20024;-58
2021/05/04 02:48:20;;;;;;;3.13;2.10;;;11.90;72.30;;;;;;5073809;28;20066;-58
2021/05/04 02:50:46;;;;;;;3.72;2.28;;;11.90;72.40;;;;;;5062998;28;20396;-58
2021/05/04 02:53:12;;;;;;;4.80;2.90;;;11.90;72.60;;;;;;5070302;28;20475;-58
2021/05/04 02:55:39;;;;;;;2.67;1.90;;;11.80;72.60;;;;;;5072337;28;20430;-58
2021/05/04 02:58:07;;;;;;;3.90;2.50;;;11.90;72.60;;;;;;5061920;28;20032;-59
2021/05/04 03:00:33;;;;;;;5.95;3.03;;;11.80;72.50;;;;;;5073681;28;20037;-58
2021/05/04 03:02:59;;;;;;;5.28;2.42;;;11.90;72.60;;;;;;5073955;28;20063;-58
2021/05/04 03:05:25;;;;;;;2.53;1.75;;;11.80;72.80;;;;;;5073250;28;20484;-58
2021/05/04 03:07:51;;;;;;;6.10;1.95;;;11.80;72.60;;;;;;5073558;28;20020;-58
2021/05/04 03:10:17;;;;;;;3.70;2.25;;;11.80;72.70;;;;;;5073729;28;20544;-58
2021/05/04 03:12:42;;;;;;;3.42;1.83;;;11.80;72.70;;;;;;5072993;28;20020;-59
2021/05/04 03:15:09;;;;;;;5.88;2.28;;;11.80;73.00;;;;;;5073812;28;20029;-59
2021/05/04 03:17:35;;;;;;;3.13;2.08;;;11.70;73.00;;;;;;5073327;28;20033;-59
2021/05/04 03:20:00;;;;;;;3.22;1.67;;;11.70;73.10;;;;;;5072790;28;20039;-59
2021/05/04 03:22:26;;;;;;;4.45;1.90;;;11.60;73.30;;;;;;5073424;28;20036;-59
2021/05/04 03:24:52;;;;;;;2.28;1.55;;;11.60;73.40;;;;;;5072035;28;20115;-59
2021/05/04 03:27:18;;;;;;;7.45;2.33;;;11.60;73.50;;;;;;5072949;28;20077;-59
2021/05/04 03:29:43;;;;;;;1.23;1.13;;;11.60;73.50;;;;;;5073357;28;20036;-59
2021/05/04 03:32:09;;;;;;;2.50;1.63;;;11.60;73.50;;;;;;5073485;28;20499;-59
2021/05/04 03:34:35;;;;;;;5.25;2.42;;;11.60;73.50;;;;;;5072353;28;20395;-59
2021/05/04 03:37:01;;;;;;;2.97;2.05;;;11.70;73.40;;;;;;5072914;28;20032;-59
2021/05/04 03:39:26;;;;;;;1.73;1.35;;;11.70;73.50;;;;;;5073258;28;20063;-59
2021/05/04 03:41:52;;;;;;;1.85;1.35;;;11.60;73.50;;;;;;5072226;28;20025;-59
2021/05/04 03:44:18;;;;;;;5.35;2.05;;;11.60;73.50;;;;;;5073062;28;20040;-59
2021/05/04 03:46:44;;;;;;;2.45;1.88;;;11.70;73.80;;;;;;5072652;28;20021;-61
2021/05/04 03:49:11;;;;;;;3.05;2.03;;;11.60;73.70;;;;;;5072080;28;20121;-59
2021/05/04 03:51:37;;;;;;;3.90;1.65;;;11.60;73.80;;;;;;5072734;28;20028;-59
2021/05/04 03:54:04;;;;;;;2.53;1.85;;;11.60;74.00;;;;;;5072997;28;20058;-59
2021/05/04 03:56:29;;;;;;;1.38;1.27;;;11.60;74.30;;;;;;5072478;28;20024;-59
2021/05/04 03:58:55;;;;;;;3.00;1.98;;;11.50;74.50;;;;;;5072833;28;20035;-59
2021/05/04 04:01:21;;;;;;;1.60;1.20;;;11.50;74.60;;;;;;5072968;28;20476;-59
2021/05/04 04:03:50;;;;;;;2.05;1.15;;;11.50;74.80;;;;;;5071950;28;20495;-59
2021/05/04 04:06:17;;;;;;;4.70;2.22;;;11.40;75.00;;;;;;5072782;28;20055;-59
2021/05/04 04:08:45;;;;;;;2.90;1.98;;;11.50;75.30;;;;;;5071926;28;20032;-59
2021/05/04 04:11:10;;;;;;;3.95;1.95;;;11.40;75.70;;;;;;5072663;28;20044;-59
2021/05/04 04:13:36;;;;;;;2.63;1.67;;;11.30;75.90;;;;;;5072940;28;20033;-59
2021/05/04 04:16:02;;;;;;;1.98;1.30;;;11.30;76.20;;;;;;5071918;28;20107;-59
2021/05/04 04:18:28;;;;;;;1.92;1.30;;;11.20;77.00;;;;;;5072722;28;20028;-59
2021/05/04 04:20:59;;;;;;;2.95;1.90;;;11.20;76.40;;;;;;5072726;28;20025;-59
2021/05/04 04:23:25;;;;;;;3.20;1.92;;;11.30;76.50;;;;;;5072168;28;20025;-59
2021/05/04 04:25:51;;;;;;;2.15;1.67;;;11.20;76.50;;;;;;5072562;28;20021;-59
2021/05/04 04:28:17;;;;;;;1.83;1.05;;;11.20;76.80;;;;;;5072697;28;20039;-59
2021/05/04 04:30:43;;;;;;;2.10;1.42;;;11.20;76.90;;;;;;5071910;28;20068;-59
2021/05/04 04:33:09;;;;;;;3.67;1.38;;;11.20;77.10;;;;;;5072337;28;20388;-59
2021/05/04 04:35:34;;;;;;;2.13;1.30;;;11.20;77.10;;;;;;5072831;28;20078;-59
2021/05/04 04:38:00;;;;;;;4.03;1.35;;;11.20;77.10;;;;;;5071714;28;20426;-59
2021/05/04 04:40:26;;;;;;;1.65;1.45;;;11.20;77.20;;;;;;5072587;28;20036;-59
2021/05/04 04:42:51;;;;;;;1.33;0.98;;;11.20;77.20;;;;;;5072320;28;20036;-59
2021/05/04 04:45:17;;;;;;;2.63;1.65;;;11.20;77.10;;;;;;5071594;28;20048;-59
2021/05/04 04:47:43;;;;;;;2.60;1.80;;;11.20;77.20;;;;;;5076239;28;20049;-59
2021/05/04 04:50:09;;;;;;;1.05;0.90;;;11.20;77.30;;;;;;5076492;28;20135;-59
2021/05/04 04:52:35;;;;;;;2.38;1.77;;;11.20;77.50;;;;;;5075677;28;20035;-59
2021/05/04 04:55:01;;;;;;;2.08;1.58;;;11.20;77.60;;;;;;5076511;28;20060;-59
2021/05/04 04:57:26;;;;;;;1.33;1.10;;;11.20;77.70;;;;;;5074863;28;20360;-59
2021/05/04 04:59:52;;;;;;;2.50;1.60;;;11.20;77.70;;;;;;5074511;28;20028;-59
2021/05/04 05:02:18;;;;;;;0.80;0.80;;;11.20;77.90;;;;;;5076064;28;20029;-59
2021/05/04 05:04:44;;;;;;;0.98;0.98;;;11.20;78.10;;;;;;5075713;28;20025;-59
2021/05/04 05:07:10;;;;;;;3.20;1.58;;;11.20;78.20;;;;;;5076117;28;20036;-59
2021/05/04 05:09:36;;;;;;;2.08;1.45;;;11.20;78.20;;;;;;5076192;28;20051;-59
2021/05/04 05:12:04;;;;;;;1.80;1.55;;;11.10;78.40;;;;;;5075337;28;20029;-59
2021/05/04 05:14:30;;;;;;;5.75;1.92;;;11.20;78.60;;;;;;5075848;28;20040;-59
2021/05/04 05:16:55;;;;;;;2.70;1.65;;;11.10;78.60;;;;;;5075908;28;20479;-59
2021/05/04 05:19:21;;;;;;;5.88;1.67;;;11.10;78.80;;;;;;5075169;28;20542;-60
2021/05/04 05:21:50;;;;;;;2.83;2.15;;;11.10;79.00;;;;;;5076156;28;20399;-59
2021/05/04 05:24:15;;;;;;;3.72;1.80;;;11.00;79.10;;;;;;5075722;28;20106;-59
2021/05/04 05:26:41;;;;;;;3.47;1.50;;;11.00;79.40;;;;;;5075142;28;20487;-59
2021/05/04 05:29:07;;;;;;;2.38;1.92;;;11.00;79.50;;;;;;5075799;28;20029;-59
2021/05/04 05:31:34;;;;;;;4.90;1.63;;;11.00;79.60;;;;;;5075368;28;20105;-60
2021/05/04 05:34:00;;;;;;;5.63;1.90;;;11.10;79.60;;;;;;5075136;28;20020;-59
2021/05/04 05:36:26;;;;;;;4.68;1.80;;;11.10;79.70;;;;;;5075645;28;20032;-59
2021/05/04 05:38:51;;;;;;;2.45;1.55;;;11.00;80.10;;;;;;5075656;28;20025;-59
2021/05/04 05:41:17;;;;;;;4.68;1.88;;;10.90;80.50;;;;;;5074671;28;20135;-59
2021/05/04 05:43:43;;;;;;;3.83;1.80;;;10.90;81.00;;;;;;5075453;28;20543;-59
2021/05/04 05:46:09;;;;;;;3.55;2.20;;;10.80;81.30;;;;;;5075316;28;20033;-59
2021/05/04 05:48:34;;;;;;;3.53;1.70;;;10.80;81.80;;;;;;5074584;28;20127;-59
2021/05/04 05:51:00;;;;;;;2.47;1.58;;;10.60;82.30;;;;;;5075225;28;20048;-59
2021/05/04 05:53:26;;;;;;;2.55;1.42;;;10.60;82.70;;;;;;5075268;28;20369;-59
2021/05/04 05:55:52;;;;;;;3.08;1.50;;;10.50;82.80;;;;;;5060461;28;20528;-59
2021/05/04 05:58:17;;;;;;;2.95;1.70;;;10.60;83.00;;;;;;5075304;28;20113;-59
2021/05/04 06:00:43;;;;;;;2.70;1.40;;;10.60;82.90;;;;;;5074979;28;20028;-59
2021/05/04 06:03:09;;;;;;;1.55;1.45;;;10.60;82.70;;;;;;5074432;28;20029;-59
2021/05/04 06:05:35;;;;;;;2.85;1.60;;;10.70;82.60;;;;;;5074843;28;20029;-60
2021/05/04 06:08:01;;;;;;;3.00;1.45;;;10.70;82.60;;;;;;5074502;28;20032;-59
2021/05/04 06:10:27;;;;;;;5.32;2.05;;;10.70;82.60;;;;;;5074890;28;20041;-60
2021/05/04 06:13:01;;;;;;;2.47;1.38;;;10.70;82.50;;;;;;5075007;28;20017;-59
2021/05/04 06:15:28;;;;;;;1.05;0.85;;;10.70;82.50;;;;;;5074312;28;20028;-59
2021/05/04 06:17:53;;;;;;;1.38;1.15;;;10.80;82.40;;;;;;5074757;28;20029;-59
2021/05/04 06:20:19;;;;;;;2.03;1.50;;;10.80;82.40;;;;;;5075045;28;20353;-59
2021/05/04 06:22:45;;;;;;;4.40;1.63;;;10.80;82.50;;;;;;5073956;28;20067;-59
2021/05/04 06:25:11;;;;;;;3.72;1.70;;;10.80;82.60;;;;;;5074723;28;20068;-60
2021/05/04 06:27:37;;;;;;;5.22;2.05;;;10.80;82.60;;;;;;5074526;28;20037;-59
2021/05/04 06:30:05;;;;;;;3.90;1.83;;;10.80;82.80;;;;;;5074014;28;20094;-59
2021/05/04 06:32:31;;;;;;;2.58;1.80;;;10.80;83.10;;;;;;5074835;28;20025;-59
2021/05/04 06:34:56;;;;;;;7.25;2.83;;;10.80;83.30;;;;;;5074496;28;20036;-59
2021/05/04 06:37:25;;;;;;;8.40;2.90;;;10.80;83.50;;;;;;5072536;28;20036;-59
2021/05/04 06:39:51;;;;;;;5.53;2.30;;;10.80;83.70;;;;;;5074340;28;20036;-59
2021/05/04 06:42:16;;;;;;;7.18;1.85;;;10.70;84.00;;;;;;5074041;28;20033;-59
2021/05/04 06:44:42;;;;;;;2.92;1.75;;;10.70;84.10;;;;;;5066067;28;20029;-59
2021/05/04 06:47:08;;;;;;;2.90;2.10;;;10.80;84.30;;;;;;5069027;28;20442;-59
2021/05/04 06:49:34;;;;;;;6.47;2.65;;;10.80;84.50;;;;;;5073771;28;20120;-59
2021/05/04 06:51:59;;;;;;;6.50;1.98;;;10.70;84.40;;;;;;5073159;28;20025;-59
2021/05/04 06:54:25;;;;;;;8.77;2.65;;;10.80;84.60;;;;;;5074155;28;20035;-59
2021/05/04 06:56:51;;;;;;;7.72;2.35;;;10.80;84.60;;;;;;5073857;28;20031;-59
2021/05/04 06:59:17;;;;;;;7.03;2.28;;;10.70;84.60;;;;;;5073620;28;20036;-59
2021/05/04 07:01:42;;;;;;;6.20;2.33;;;10.70;85.00;;;;;;5073796;28;20025;-59
2021/05/04 07:04:08;;;;;;;5.43;2.10;;;10.70;85.20;;;;;;5073554;28;20032;-59
2021/05/04 07:06:34;;;;;;;4.30;1.92;;;10.70;85.50;;;;;;5073192;28;20047;-59
2021/05/04 07:09:00;;;;;;;7.05;3.00;;;10.70;85.40;;;;;;5072842;28;20048;-59
2021/05/04 07:11:26;;;;;;;8.73;2.33;;;10.80;85.50;;;;;;5072632;28;20460;-59
2021/05/04 07:13:51;;;;;;;3.95;1.63;;;10.80;85.40;;;;;;5069869;28;20032;-61
2021/05/04 07:16:17;;;;;;;6.57;1.98;;;10.80;85.30;;;;;;5073376;28;20052;-59
2021/05/04 07:18:43;;;;;;;6.68;2.05;;;10.80;85.40;;;;;;5072632;28;20027;-65
2021/05/04 07:21:09;;;;;;;5.82;2.03;;;10.70;85.60;;;;;;5073172;28;20051;-61
2021/05/04 07:23:36;;;;;;;9.00;2.10;;;10.80;85.90;;;;;;5073013;28;20031;-60
2021/05/04 07:26:03;;;;;;;7.97;2.42;;;10.80;85.80;;;;;;5072510;28;20024;-69
2021/05/04 07:28:29;;;;;;;6.13;2.00;;;10.80;85.80;;;;;;5073190;28;20562;-60
2021/05/04 07:30:55;;;;;;;10.77;2.28;;;10.80;85.90;;;;;;5061550;28;20048;-59
2021/05/04 07:33:21;;;;;;;14.70;2.80;;;10.80;86.20;;;;;;5071838;28;20025;-60
2021/05/04 07:35:49;;;;;;;6.82;2.50;;;10.80;86.60;;;;;;5073205;28;20086;-60
2021/05/04 07:38:15;;;;;;;7.90;2.42;;;10.80;86.60;;;;;;5073075;28;20028;-60
2021/05/04 07:40:42;;;;;;;9.27;2.50;;;10.80;86.90;;;;;;5067173;28;20452;-60
2021/05/04 07:43:08;;;;;;;9.60;1.75;;;10.80;87.00;;;;;;5069905;28;20036;-60
2021/05/04 07:45:35;;;;;;;11.75;3.00;;;10.70;87.20;;;;;;5071374;28;20029;-60
2021/05/04 07:48:02;;;;;;;10.98;2.70;;;10.70;87.30;;;;;;5070265;28;20059;-59
2021/05/04 07:50:29;;;;;;;13.43;2.63;;;10.80;87.20;;;;;;5071482;28;20120;-59
2021/05/04 07:52:55;;;;;;;17.95;3.22;;;10.80;87.20;;;;;;5071157;28;20424;-59
2021/05/04 07:55:21;;;;;;;15.65;3.10;;;10.80;87.30;;;;;;5070580;28;20020;-59
2021/05/04 07:57:47;;;;;;;8.63;2.30;;;10.70;87.20;;;;;;5071393;28;20036;-59
2021/05/04 08:00:13;;;;;;;8.63;2.63;;;10.60;87.30;;;;;;5071397;28;20025;-59
2021/05/04 08:02:41;;;;;;;10.48;2.45;;;10.70;87.50;;;;;;5070180;28;20032;-61
2021/05/04 08:05:08;;;;;;;8.25;2.75;;;10.70;87.70;;;;;;5071495;28;20089;-60
2021/05/04 08:07:35;;;;;;;13.18;3.88;;;10.70;87.80;;;;;;5070816;28;20029;-60
2021/05/04 08:10:06;;;;;;;16.73;3.15;;;10.80;87.80;;;;;;5069779;28;20033;-60
2021/05/04 08:12:32;;;;;;;13.30;2.90;;;10.90;87.40;;;;;;5071272;28;20025;-60
2021/05/04 08:14:57;;;;;;;8.90;2.78;;;11.00;87.30;;;;;;5070335;28;20487;-61
2021/05/04 08:17:26;;;;;;;16.85;2.97;;;11.00;87.40;;;;;;5070924;28;20031;-60
2021/05/04 08:19:52;;;;;;;16.88;3.75;;;11.10;87.70;;;;;;5068675;28;20033;-61
2021/05/04 08:22:18;;;;;;;14.50;2.90;;;11.00;87.90;;;;;;5068417;28;20044;-60
2021/05/04 08:24:43;;;;;;;14.98;3.35;;;11.00;87.90;;;;;;5070031;28;20040;-60
2021/05/04 08:27:09;;;;;;;10.82;3.20;;;11.00;88.00;;;;;;5071136;28;20107;-60
2021/05/04 08:29:35;;;;;;;11.38;2.88;;;10.90;87.70;;;;;;5068355;28;20028;-60
2021/05/04 08:32:04;;;;;;;9.95;3.53;;;10.80;87.50;;;;;;5069278;28;20032;-60
2021/05/04 08:34:31;;;;;;;10.35;2.80;;;10.90;87.70;;;;;;5069565;28;20376;-60
2021/05/04 08:36:57;;;;;;;14.85;3.22;;;10.90;87.60;;;;;;5067989;28;20028;-60
2021/05/04 08:39:23;;;;;;;11.50;3.25;;;10.90;87.00;;;;;;5069239;28;20427;-60
2021/05/04 08:41:49;;;;;;;9.65;3.22;;;11.00;86.50;;;;;;5069193;28;20040;-60
2021/05/04 08:44:20;;;;;;;9.75;2.90;;;11.00;86.70;;;;;;5069219;28;20786;-71
2021/05/04 08:46:50;;;;;;;8.50;2.40;;;10.90;86.90;;;;;;5069233;28;20448;-60
2021/05/04 08:49:17;;;;;;;16.20;2.80;;;11.00;86.60;;;;;;5069236;28;20040;-60
2021/05/04 08:51:45;;;;;;;9.80;2.42;;;11.00;86.40;;;;;;5067407;28;20090;-60
2021/05/04 08:54:11;;;;;;;5.50;1.70;;;11.00;86.50;;;;;;5069004;28;20107;-60
2021/05/04 08:56:40;;;;;;;9.68;2.05;;;11.10;86.60;;;;;;5067650;28;20154;-60
2021/05/04 08:59:06;;;;;;;8.25;1.92;;;11.20;86.50;;;;;;5059783;28;20483;-60
2021/05/04 09:01:31;;;;;;;11.27;2.55;;;11.20;86.10;;;;;;5052003;28;20033;-61
2021/05/04 09:04:01;;;;;;;8.93;2.30;;;11.30;85.70;;;;;;5061046;28;20107;-60
2021/05/04 09:06:39;;;;;;;8.38;1.98;;;11.30;85.60;;;;;;5061406;28;20032;-59
2021/05/04 09:09:26;;;;;;;4.90;1.50;;;11.30;85.50;;;;;;5055813;28;20033;-60
2021/05/04 09:14:29;;;;;;;10.82;2.42;;;11.50;85.00;;;;;;5061417;28;20432;-61
2021/05/04 09:20:21;;;;;;;5.38;1.90;;;11.60;84.80;;;;;;5070797;28;20028;-60
2021/05/04 09:22:47;;;;;;;11.93;2.88;;;11.50;85.00;;;;;;5067756;28;20035;-61
2021/05/04 09:25:27;;;;;;;12.10;1.85;;;11.50;85.50;;;;;;5070706;28;20796;-61
2021/05/04 09:28:03;;;;;;;4.80;1.60;;;11.40;85.60;;;;;;5071575;28;20056;-61
2021/05/04 09:30:33;;;;;;;4.88;1.30;;;11.30;86.20;;;;;;5071687;28;20040;-61
2021/05/04 09:33:07;;;;;;;4.78;1.40;;;11.30;86.00;;;;;;5074767;28;20033;-59
2021/05/04 09:35:33;;;;;;;5.10;1.50;;;11.30;85.90;;;;;;5075348;28;20087;-59
2021/05/04 09:38:10;;;;;;;6.85;2.05;;;11.30;86.20;;;;;;5068102;28;20029;-59
2021/05/04 09:40:37;;;;;;;8.90;2.47;;;11.30;86.50;;;;;;5074491;28;20029;-62
2021/05/04 09:43:05;;;;;;;6.13;1.58;;;11.30;87.00;;;;;;5067094;28;20110;-59
2021/05/04 09:45:32;;;;;;;7.18;1.95;;;11.30;86.70;;;;;;5074005;28;20116;-59
2021/05/04 09:48:14;;;;;;;5.43;1.83;;;11.30;86.90;;;;;;5069287;28;20638;-60
2021/05/04 09:51:37;;;;;;;5.30;1.52;;;11.40;87.00;;;;;;5072867;28;20492;-60
2021/05/04 09:56:29;;;;;;;8.15;2.05;;;11.40;86.60;;;;;;5075166;28;20035;-61
2021/05/04 09:58:54;;;;;;;7.10;1.88;;;11.40;86.40;;;;;;5074753;28;20073;-60
2021/05/04 10:01:20;;;;;;;6.57;2.03;;;11.40;86.00;;;;;;5074488;28;20032;-62
2021/05/04 10:03:48;;;;;;;8.90;2.28;;;11.40;85.70;;;;;;5074948;28;20047;-61
2021/05/04 10:06:16;;;;;;;9.43;2.30;;;11.40;85.80;;;;;;5074371;28;20020;-61
2021/05/04 10:08:46;;;;;;;6.55;1.92;;;11.40;86.10;;;;;;5071372;28;20586;-60
2021/05/04 10:11:18;;;;;;;5.80;1.50;;;11.40;86.50;;;;;;5063771;28;20098;-60
2021/05/04 10:13:54;;;;;;;2.83;1.13;;;11.40;86.40;;;;;;5075024;28;20074;-60
2021/05/04 10:16:30;;;;;;;2.70;1.20;;;11.40;86.40;;;;;;5072876;28;20025;-60
2021/05/04 10:19:01;;;;;;;4.40;1.13;;;11.50;86.00;;;;;;5074633;28;20029;-60
2021/05/04 10:21:28;;;;;;;2.58;0.98;;;11.40;85.80;;;;;;5071420;28;20036;-60
2021/05/04 10:23:54;;;;;;;3.50;1.55;;;11.50;85.70;;;;;;5074859;28;20170;-60
2021/05/04 10:26:24;;;;;;;3.17;1.15;;;11.50;85.50;;;;;;5074617;28;20028;-59
2021/05/04 10:28:54;;;;;;;4.07;1.30;;;11.50;85.60;;;;;;5074090;28;20016;-59
2021/05/04 10:31:39;;;;;;;5.82;1.65;;;11.60;85.60;;;;;;5074239;28;20036;-60
2021/05/04 10:34:23;;;;;;;6.07;1.80;;;11.60;85.70;;;;;;5074127;28;20032;-60
2021/05/04 10:36:50;;;;;;;;;;;11.60;86.00;;;;;;5073497;28;20025;-60
2021/05/04 10:39:32;;;;;;;10.65;2.15;;;11.50;86.20;;;;;;5071857;28;19908;-60
2021/05/04 10:41:59;;;;;;;8.05;1.83;;;11.50;86.50;;;;;;5071548;28;20029;-60
2021/05/04 10:44:24;;;;;;;7.70;2.00;;;11.60;86.50;;;;;;5067245;28;20029;-59
2021/05/04 10:46:50;;;;;;;6.70;1.77;;;11.60;86.30;;;;;;5072989;28;20510;-59
2021/05/04 10:49:17;;;;;;;9.65;2.20;;;11.70;86.00;;;;;;5065452;28;20028;-59
2021/05/04 10:51:46;;;;;;;5.75;2.20;;;11.80;85.70;;;;;;5072993;28;20476;-59
2021/05/04 10:54:13;;;;;;;7.68;1.80;;;11.80;85.50;;;;;;5073218;28;20043;-60
2021/05/04 10:56:48;;;;;;;1.00;0.80;;;11.60;85.60;;;;;;5073310;28;20703;-60
2021/05/04 10:59:34;;;;;;;2.08;0.98;;;11.40;84.60;;;;;;5074069;28;20066;-60
2021/05/04 11:02:09;;;;;;;1.35;0.90;;;11.10;84.90;;;;;;5073768;28;20028;-60
2021/05/04 11:04:45;;;;;;;4.47;0.98;;;11.00;85.10;;;;;;5072637;28;20372;-61
2021/05/04 11:07:11;;;;;;;1.05;0.60;;;11.00;85.30;;;;;;5073380;28;20040;-60
2021/05/04 11:09:40;;;;;;;2.08;0.80;;;11.00;85.20;;;;;;5073300;28;20063;-60
2021/05/04 11:12:08;;;;;;;3.75;1.17;;;11.00;84.80;;;;;;5063311;28;21000;-60
2021/05/04 11:14:36;;;;;;;5.18;1.48;;;11.00;84.80;;;;;;5073256;28;20029;-60
2021/05/04 11:17:10;;;;;;;2.28;1.13;;;11.00;85.10;;;;;;5072247;28;20028;-60
2021/05/04 11:19:42;;;;;;;4.13;1.50;;;11.00;85.30;;;;;;5061923;28;20029;-60
2021/05/04 11:22:14;;;;;;;2.65;1.15;;;11.00;85.50;;;;;;5069505;28;20040;-59
2021/05/04 11:24:41;;;;;;;4.40;1.10;;;11.00;85.90;;;;;;5068212;28;20032;-60
2021/05/04 11:27:13;;;;;;;3.10;1.20;;;11.00;86.30;;;;;;5063382;28;20167;-59
2021/05/04 11:29:40;;;;;;;3.15;1.50;;;11.10;86.70;;;;;;5067928;28;20115;-61
2021/05/04 11:32:42;;;;;;;3.90;1.15;;;11.10;87.00;;;;;;5069448;28;20029;-60
2021/05/04 11:35:09;;;;;;;3.67;1.55;;;11.20;86.90;;;;;;5069379;28;20029;-60
2021/05/04 11:37:39;;;;;;;4.53;1.30;;;11.20;86.10;;;;;;5067391;28;20032;-59
2021/05/04 11:40:18;;;;;;;8.30;2.00;;;11.30;86.00;;;;;;5069719;28;20059;-60
2021/05/04 11:42:52;;;;;;;2.63;1.23;;;11.30;85.60;;;;;;5069216;28;20547;-59
2021/05/04 11:45:28;;;;;;;3.97;1.52;;;11.10;85.30;;;;;;5068769;28;20064;-59
2021/05/04 11:47:59;;;;;;;5.47;1.40;;;11.00;86.00;;;;;;5067265;28;20423;-60
2021/05/04 11:50:45;;;;;;;2.20;0.88;;;10.90;86.20;;;;;;5069263;28;20039;-59
2021/05/04 11:53:14;;;;;;;2.72;1.10;;;10.80;86.30;;;;;;5069227;28;20112;-60
2021/05/04 11:55:45;;;;;;;2.42;1.58;;;10.80;86.40;;;;;;5069107;28;20040;-60
2021/05/04 11:58:24;;;;;;;2.13;1.17;;;10.70;86.50;;;;;;5069599;28;20472;-59
2021/05/04 12:01:01;;;;;;;4.00;1.33;;;10.70;86.60;;;;;;5068205;28;20106;-60
2021/05/04 12:03:27;;;;;;;2.28;1.17;;;10.70;87.20;;;;;;5069511;28;20029;-60
2021/05/04 12:05:57;;;;;;;3.17;1.30;;;10.70;88.10;;;;;;5069615;28;20028;-59
2021/05/04 12:08:23;;;;;;;3.33;1.25;;;10.70;87.50;;;;;;5068750;28;20025;-59
2021/05/04 12:10:49;;;;;;;4.90;2.00;;;10.70;87.30;;;;;;5066739;28;20036;-60
2021/05/04 12:13:19;;;;;;;4.10;1.73;;;10.70;86.90;;;;;;5069360;28;20029;-60
2021/05/04 12:15:47;;;;;;;4.55;1.60;;;10.70;87.30;;;;;;5068202;28;20035;-59
2021/05/04 12:18:18;;;;;;;2.72;1.45;;;10.70;87.70;;;;;;5069561;28;20028;-60
2021/05/04 12:20:51;;;;;;;4.40;1.67;;;10.80;87.70;;;;;;5069810;28;20100;-60
2021/05/04 12:23:33;;;;;;;6.77;1.37;;;10.70;86.60;;;;;;5068528;28;20047;-60
2021/05/04 12:26:06;;;;;;;4.20;1.40;;;10.60;85.80;;;;;;5070879;28;20769;-60
2021/05/04 12:28:33;;;;;;;3.42;1.33;;;10.40;85.60;;;;;;5070629;28;20021;-60
2021/05/04 12:31:18;;;;;;;1.75;1.10;;;10.30;86.90;;;;;;5065425;28;20459;-60
2021/05/04 12:33:49;;;;;;;2.85;1.52;;;10.20;87.60;;;;;;5069335;28;20032;-60
2021/05/04 12:36:38;;;;;;;2.85;1.50;;;10.20;88.40;;;;;;5069395;28;20036;-60
2021/05/04 12:39:12;;;;;;;8.18;2.15;;;10.20;88.80;;;;;;5069194;28;20529;-60
2021/05/04 12:41:47;;;;;;;4.28;2.00;;;10.10;89.30;;;;;;5068978;28;20102;-60
2021/05/04 12:46:47;;;;;;;7.35;2.53;;;10.20;89.80;;;;;;5060756;28;20368;-61
2021/05/04 12:49:13;;;;;;;8.45;2.83;;;10.30;89.80;;;;;;5070985;28;20051;-60
2021/05/04 12:51:49;;;;;;;8.15;2.25;;;10.20;90.00;;;;;;5071794;28;20031;-59
2021/05/04 12:54:18;;;;;;;5.68;2.13;;;10.20;90.10;;;;;;5071963;28;20052;-60
2021/05/04 12:56:48;;;;;;;6.50;2.90;;;10.20;90.30;;;;;;5059369;28;20029;-60
2021/05/04 12:59:30;;;;;;;11.25;3.42;;;10.20;90.30;;;;;;5071486;28;20029;-60
2021/05/04 13:02:02;;;;;;;3.95;2.33;;;10.30;90.20;;;;;;5071962;28;20036;-60